createdAt,value
2018-11-02T00:02:12.612Z,83.51
2018-11-02T00:04:40.621Z,83.10
2018-11-02T00:07:08.625Z,83.02
2018-11-02T00:09:36.749Z,82.84
2018-11-02T00:12:05.035Z,82.79
2018-11-02T00:14:32.987Z,83.36
2018-11-02T00:17:01.041Z,85.19
2018-11-02T00:19:31.452Z,84.23
2018-11-02T00:22:00.544Z,84.39
2018-11-02T00:24:28.914Z,84.62
2018-11-02T00:26:57.453Z,84.92
2018-11-02T00:29:25.462Z,84.21
2018-11-02T00:31:53.580Z,83.80
2018-11-02T00:34:21.518Z,83.87
2018-11-02T00:36:49.553Z,84.17
2018-11-02T00:39:17.607Z,83.75
2018-11-02T00:41:45.610Z,84.10
2018-11-02T00:44:13.613Z,84.02
2018-11-02T00:46:41.633Z,83.09
2018-11-02T00:49:09.683Z,83.12
2018-11-02T00:51:38.232Z,82.48
2018-11-02T00:54:06.621Z,83.80
2018-11-02T00:56:34.696Z,83.52
2018-11-02T00:59:02.701Z,83.00
2018-11-02T01:01:30.754Z,82.74
2018-11-02T01:03:58.723Z,81.21
2018-11-02T01:06:26.704Z,82.24
2018-11-02T01:08:54.753Z,81.85
2018-11-02T01:11:22.755Z,82.09
2018-11-02T01:13:50.773Z,81.71
2018-11-02T01:16:18.790Z,81.45
2018-11-02T01:18:46.793Z,81.42
2018-11-02T01:21:14.801Z,79.50
2018-11-02T01:23:42.838Z,78.89
2018-11-02T01:26:10.889Z,79.35
2018-11-02T01:28:38.897Z,79.05
2018-11-02T01:31:06.955Z,79.02
2018-11-02T01:33:36.985Z,77.91
2018-11-02T01:36:05.666Z,77.78
2018-11-02T01:38:33.685Z,78.51
2018-11-02T01:41:01.721Z,78.22
2018-11-02T01:43:30.057Z,78.03
2018-11-02T01:45:58.111Z,78.22
2018-11-02T01:48:26.097Z,78.51
2018-11-02T01:50:54.929Z,79.10
2018-11-02T01:53:22.915Z,79.37
2018-11-02T01:55:51.168Z,79.72
2018-11-02T01:58:19.412Z,79.51
2018-11-02T02:00:47.503Z,78.68
2018-11-02T02:03:15.544Z,79.15
2018-11-02T02:05:43.685Z,80.79
2018-11-02T02:08:11.652Z,80.58
2018-11-02T02:10:39.653Z,80.78
2018-11-02T02:13:07.697Z,80.99
2018-11-02T02:15:35.723Z,80.44
2018-11-02T02:18:03.773Z,80.70
2018-11-02T02:20:31.779Z,81.15
2018-11-02T02:22:59.786Z,81.47
2018-11-02T02:25:27.806Z,80.73
2018-11-02T02:27:55.794Z,79.75
2018-11-02T02:30:23.873Z,80.71
2018-11-02T02:32:52.024Z,79.47
2018-11-02T02:35:20.055Z,80.25
2018-11-02T02:37:48.082Z,80.44
2018-11-02T02:40:16.115Z,80.04
2018-11-02T02:42:44.114Z,80.63
2018-11-02T02:45:12.824Z,80.83
2018-11-02T02:47:41.189Z,79.44
2018-11-02T02:50:11.394Z,80.56
2018-11-02T02:52:39.438Z,79.69
2018-11-02T02:55:07.736Z,79.48
2018-11-02T02:57:42.418Z,80.03
2018-11-02T03:00:12.511Z,80.83
2018-11-02T03:02:40.661Z,80.63
2018-11-02T03:05:09.041Z,81.75
2018-11-02T03:07:37.066Z,82.28
2018-11-02T03:10:05.326Z,83.21
2018-11-02T03:12:33.300Z,83.14
2018-11-02T03:15:01.305Z,83.68
2018-11-02T03:17:29.375Z,82.47
2018-11-02T03:19:57.365Z,82.82
2018-11-02T03:22:25.386Z,83.13
2018-11-02T03:24:53.394Z,83.34
2018-11-02T03:27:21.567Z,82.62
2018-11-02T03:29:49.589Z,82.52
2018-11-02T03:32:17.637Z,82.25
2018-11-02T03:34:45.653Z,82.76
2018-11-02T03:37:13.697Z,83.70
2018-11-02T03:39:41.778Z,84.10
2018-11-02T03:42:09.801Z,83.99
2018-11-02T03:44:37.797Z,83.45
2018-11-02T03:47:05.900Z,83.32
2018-11-02T03:49:33.913Z,83.64
2018-11-02T03:52:01.959Z,83.89
2018-11-02T03:54:29.984Z,83.52
2018-11-02T03:56:58.157Z,83.37
2018-11-02T03:59:26.035Z,82.94
2018-11-02T04:01:54.106Z,84.10
2018-11-02T04:04:22.109Z,83.11
2018-11-02T04:06:50.108Z,83.35
2018-11-02T04:09:18.251Z,83.59
2018-11-02T04:11:46.289Z,83.08
2018-11-02T04:14:14.345Z,83.76
2018-11-02T04:16:42.390Z,83.76
2018-11-02T04:19:10.449Z,83.14
2018-11-02T04:21:41.879Z,83.45
2018-11-02T04:24:09.931Z,84.79
2018-11-02T04:26:37.995Z,84.05
2018-11-02T04:29:06.165Z,84.42
2018-11-02T04:31:34.285Z,84.84
2018-11-02T04:34:02.422Z,84.10
2018-11-02T04:36:30.494Z,84.51
2018-11-02T04:38:58.514Z,83.87
2018-11-02T04:41:26.607Z,83.82
2018-11-02T04:43:54.649Z,83.46
2018-11-02T04:46:22.610Z,83.08
2018-11-02T04:48:50.595Z,82.60
2018-11-02T04:51:18.665Z,82.79
2018-11-02T04:53:46.682Z,82.60
2018-11-02T04:56:14.745Z,83.66
2018-11-02T04:58:42.773Z,82.78
2018-11-02T05:01:10.842Z,82.41
2018-11-02T05:03:38.881Z,82.21
2018-11-02T05:06:06.891Z,82.94
2018-11-02T05:08:34.921Z,82.58
2018-11-02T05:11:02.936Z,82.66
2018-11-02T05:13:30.957Z,82.58
2018-11-02T05:15:58.996Z,82.35
2018-11-02T05:18:27.080Z,82.47
2018-11-02T05:20:55.100Z,82.08
2018-11-02T05:23:23.205Z,81.76
2018-11-02T05:25:51.243Z,81.88
2018-11-02T05:28:19.245Z,81.99
2018-11-02T05:30:47.243Z,81.97
2018-11-02T05:33:15.312Z,82.92
2018-11-02T05:35:43.310Z,82.34
2018-11-02T05:38:11.321Z,81.75
2018-11-02T05:40:39.324Z,80.97
2018-11-02T05:43:07.402Z,81.44
2018-11-02T05:45:35.430Z,81.07
2018-11-02T05:48:03.396Z,81.77
2018-11-02T05:50:31.445Z,80.96
2018-11-02T05:52:59.664Z,80.67
2018-11-02T05:55:27.626Z,80.18
2018-11-02T05:57:55.732Z,81.29
2018-11-02T06:00:23.760Z,81.01
2018-11-02T06:02:51.756Z,81.28
2018-11-02T06:05:19.804Z,81.33
2018-11-02T06:07:47.937Z,80.02
2018-11-02T06:10:15.929Z,80.64
2018-11-02T06:12:43.978Z,79.73
2018-11-02T06:15:11.961Z,80.33
2018-11-02T06:17:39.941Z,80.09
2018-11-02T06:20:08.461Z,80.63
2018-11-02T06:22:36.454Z,79.43
2018-11-02T06:25:04.735Z,79.49
2018-11-02T06:27:32.789Z,80.04
2018-11-02T06:30:00.803Z,80.13
2018-11-02T06:32:28.917Z,79.18
2018-11-02T06:34:56.851Z,78.90
2018-11-02T06:37:25.045Z,79.43
2018-11-02T06:39:53.256Z,79.58
2018-11-02T06:42:21.248Z,78.95
2018-11-02T06:44:49.361Z,78.96
2018-11-02T06:47:17.305Z,79.62
2018-11-02T06:49:45.273Z,78.53
2018-11-02T06:52:13.275Z,78.54
2018-11-02T06:54:41.240Z,80.08
2018-11-02T06:57:09.264Z,79.84
2018-11-02T06:59:37.531Z,78.55
2018-11-02T07:02:05.541Z,78.80
2018-11-02T07:04:33.573Z,78.90
2018-11-02T07:07:01.647Z,78.40
2018-11-02T07:09:29.611Z,79.01
2018-11-02T07:11:57.701Z,79.39
2018-11-02T07:14:25.750Z,78.79
2018-11-02T07:16:53.741Z,78.72
2018-11-02T07:19:21.738Z,78.14
2018-11-02T07:21:49.862Z,78.71
2018-11-02T07:24:17.844Z,78.04
2018-11-02T07:26:45.905Z,78.38
2018-11-02T07:29:13.885Z,78.59
2018-11-02T07:31:41.895Z,79.62
2018-11-02T07:34:09.935Z,79.90
2018-11-02T07:36:37.869Z,79.43
2018-11-02T07:39:08.246Z,80.02
2018-11-02T07:41:36.294Z,80.19
2018-11-02T07:44:04.424Z,78.91
2018-11-02T07:46:32.434Z,79.07
2018-11-02T07:49:00.446Z,78.92
2018-11-02T07:51:28.461Z,78.93
2018-11-02T07:53:56.965Z,79.75
2018-11-02T07:56:25.113Z,79.81
2018-11-02T07:58:53.137Z,80.02
2018-11-02T08:01:21.173Z,79.82
2018-11-02T08:03:49.198Z,79.94
2018-11-02T08:06:17.165Z,79.11
2018-11-02T08:08:45.180Z,78.91
2018-11-02T08:11:13.238Z,77.92
2018-11-02T08:13:41.196Z,77.54
2018-11-02T08:16:09.183Z,77.66
2018-11-02T08:18:37.189Z,77.92
2018-11-02T08:21:05.216Z,77.51
2018-11-02T08:23:33.233Z,77.76
2018-11-02T08:26:01.232Z,77.69
2018-11-02T08:28:29.273Z,77.03
2018-11-02T08:30:57.282Z,77.54
2018-11-02T08:33:25.294Z,77.09
2018-11-02T08:35:53.304Z,78.12
2018-11-02T08:38:21.424Z,76.76
2018-11-02T08:40:49.424Z,77.13
2018-11-02T08:43:17.427Z,78.00
2018-11-02T08:45:45.444Z,77.61
2018-11-02T08:48:13.465Z,76.88
2018-11-02T08:50:41.485Z,77.65
2018-11-02T08:53:09.511Z,76.24
2018-11-02T08:55:37.501Z,77.50
2018-11-02T08:58:05.643Z,76.58
2018-11-02T09:00:33.541Z,75.42
2018-11-02T09:03:01.541Z,76.99
2018-11-02T09:05:29.573Z,76.71
2018-11-02T09:07:57.573Z,76.06
2018-11-02T09:10:25.604Z,75.22
2018-11-02T09:12:53.592Z,75.20
2018-11-02T09:15:21.580Z,75.44
2018-11-02T09:17:49.593Z,74.85
2018-11-02T09:20:17.614Z,73.95
2018-11-02T09:22:45.644Z,73.09
2018-11-02T09:25:13.605Z,73.75
2018-11-02T09:27:41.647Z,73.96
2018-11-02T09:30:12.721Z,73.52
2018-11-02T09:32:40.725Z,73.95
2018-11-02T09:35:08.761Z,72.99
2018-11-02T09:37:37.765Z,72.30
2018-11-02T09:40:06.835Z,71.18
2018-11-02T09:42:34.901Z,70.24
2018-11-02T09:45:02.908Z,71.32
2018-11-02T09:47:30.947Z,70.90
2018-11-02T09:49:58.981Z,71.28
2018-11-02T09:52:27.126Z,69.00
2018-11-02T09:54:55.225Z,69.61
2018-11-02T09:57:23.232Z,69.20
2018-11-02T09:59:51.337Z,68.55
2018-11-02T10:02:19.354Z,70.42
2018-11-02T10:04:47.368Z,69.01
2018-11-02T10:07:15.375Z,69.06
2018-11-02T10:09:43.383Z,69.46
2018-11-02T10:12:11.417Z,70.49
2018-11-02T10:14:39.438Z,69.76
2018-11-02T10:17:07.476Z,70.40
2018-11-02T10:19:35.511Z,69.79
2018-11-02T10:22:03.503Z,69.72
2018-11-02T10:24:31.805Z,68.40
2018-11-02T10:26:59.810Z,68.30
2018-11-02T10:29:28.183Z,67.89
2018-11-02T10:31:56.193Z,68.90
2018-11-02T10:34:24.188Z,67.58
2018-11-02T10:36:52.190Z,68.74
2018-11-02T10:39:20.375Z,70.70
2018-11-02T10:41:50.261Z,70.71
2018-11-02T10:44:21.354Z,69.62
2018-11-02T10:46:49.349Z,70.61
2018-11-02T10:49:17.409Z,71.25
2018-11-02T10:51:45.441Z,70.90
2018-11-02T10:54:13.443Z,70.76
2018-11-02T10:56:41.530Z,71.09
2018-11-02T10:59:09.513Z,72.57
2018-11-02T11:01:43.028Z,73.02
2018-11-02T11:04:11.072Z,72.83
2018-11-02T11:06:39.153Z,71.90
2018-11-02T11:09:09.964Z,71.77
2018-11-02T11:11:38.098Z,71.97
2018-11-02T11:14:06.068Z,72.36
2018-11-02T11:16:34.097Z,72.74
2018-11-02T11:19:02.097Z,73.08
2018-11-02T11:21:30.225Z,73.89
2018-11-02T11:23:58.225Z,74.69
2018-11-02T11:26:26.305Z,74.48
2018-11-02T11:28:54.345Z,74.95
2018-11-02T11:31:22.413Z,74.63
2018-11-02T11:33:50.420Z,74.64
2018-11-02T11:36:18.432Z,75.59
2018-11-02T11:38:46.425Z,73.51
2018-11-02T11:41:14.429Z,74.85
2018-11-02T11:43:42.497Z,74.46
2018-11-02T11:46:10.533Z,73.51
2018-11-02T11:48:38.583Z,74.89
2018-11-02T11:51:06.692Z,74.61
2018-11-02T11:53:34.744Z,73.76
2018-11-02T11:56:02.730Z,75.09
2018-11-02T11:58:30.718Z,74.42
2018-11-02T12:00:58.696Z,74.32
2018-11-02T12:03:26.758Z,74.97
2018-11-02T12:05:54.753Z,75.17
2018-11-02T12:08:22.746Z,74.95
2018-11-02T12:10:50.825Z,76.39
2018-11-02T12:13:18.841Z,77.02
2018-11-02T12:15:46.869Z,77.19
2018-11-02T12:18:14.845Z,78.00
2018-11-02T12:20:42.873Z,77.07
2018-11-02T12:23:10.941Z,77.84
2018-11-02T12:25:38.936Z,78.19
2018-11-02T12:28:06.984Z,77.25
2018-11-02T12:30:34.953Z,76.27
2018-11-02T12:33:02.983Z,76.00
2018-11-02T12:35:31.012Z,75.47
2018-11-02T12:37:59.053Z,75.23
2018-11-02T12:40:27.074Z,74.66
2018-11-02T12:42:55.876Z,74.59
2018-11-02T12:45:24.165Z,75.70
2018-11-02T12:47:52.223Z,74.78
2018-11-02T12:50:25.646Z,75.11
2018-11-02T12:52:54.841Z,73.89
2018-11-02T12:55:23.212Z,73.34
2018-11-02T12:57:51.293Z,74.11
2018-11-02T13:00:21.476Z,74.45
2018-11-02T13:02:50.264Z,73.60
2018-11-02T13:05:18.326Z,72.17
2018-11-02T13:07:46.328Z,72.16
2018-11-02T13:10:16.353Z,72.38
2018-11-02T13:12:44.401Z,72.14
2018-11-02T13:15:13.742Z,71.51
2018-11-02T13:17:42.660Z,71.63
2018-11-02T13:20:11.233Z,72.63
2018-11-02T13:22:39.972Z,73.37
2018-11-02T13:25:09.472Z,71.48
2018-11-02T13:27:37.514Z,71.03
2018-11-02T13:30:06.019Z,71.89
2018-11-02T13:32:34.202Z,71.64
2018-11-02T13:35:02.254Z,70.96
2018-11-02T13:37:30.258Z,71.57
2018-11-02T13:39:58.332Z,71.63
2018-11-02T13:42:26.391Z,71.35
2018-11-02T13:44:54.470Z,71.16
2018-11-02T13:47:22.845Z,70.02
2018-11-02T13:49:51.221Z,69.14
2018-11-02T13:52:19.216Z,69.87
2018-11-02T13:54:47.270Z,68.88
2018-11-02T13:57:15.315Z,68.79
2018-11-02T13:59:43.343Z,69.93
2018-11-02T14:02:11.344Z,70.22
2018-11-02T14:04:39.541Z,69.83
2018-11-02T14:07:07.545Z,69.53
2018-11-02T14:09:35.549Z,70.38
2018-11-02T14:12:03.565Z,70.42
2018-11-02T14:14:31.586Z,70.53
2018-11-02T14:16:59.593Z,69.05
2018-11-02T14:19:27.649Z,69.57
2018-11-02T14:21:55.658Z,68.83
2018-11-02T14:24:23.719Z,69.64
2018-11-02T14:26:51.736Z,68.78
2018-11-02T14:29:19.846Z,68.98
2018-11-02T14:31:47.802Z,69.72
2018-11-02T14:34:15.956Z,69.86
2018-11-02T14:36:44.189Z,69.48
2018-11-02T14:39:13.934Z,69.36
2018-11-02T14:41:42.805Z,69.11
2018-11-02T14:44:11.025Z,68.94
2018-11-02T14:46:39.678Z,70.17
2018-11-02T14:49:07.653Z,70.93
2018-11-02T14:51:35.983Z,70.26
2018-11-02T14:56:43.522Z,70.38
2018-11-02T14:59:11.519Z,70.46
2018-11-02T15:01:39.544Z,69.48
2018-11-02T15:04:07.641Z,69.69
2018-11-02T15:06:35.643Z,69.45
2018-11-02T15:09:04.682Z,68.16
2018-11-02T15:11:32.806Z,68.70
2018-11-02T15:14:00.786Z,67.97
2018-11-02T15:16:28.836Z,68.62
2018-11-02T15:18:56.849Z,68.34
2018-11-02T15:21:24.871Z,67.83
2018-11-02T15:23:53.074Z,68.24
2018-11-02T15:26:21.144Z,68.07
2018-11-02T15:28:49.111Z,69.23
2018-11-02T15:31:17.149Z,69.43
2018-11-02T15:33:45.136Z,68.82
2018-11-02T15:36:13.124Z,69.40
2018-11-02T15:38:41.147Z,68.36
2018-11-02T15:41:09.157Z,69.07
2018-11-02T15:43:37.150Z,69.80
2018-11-02T15:46:05.309Z,70.42
2018-11-02T15:48:33.318Z,69.90
2018-11-02T15:51:01.368Z,71.52
2018-11-02T15:53:29.487Z,71.44
2018-11-02T15:55:57.441Z,71.19
2018-11-02T15:58:25.464Z,70.66
2018-11-02T16:00:53.446Z,70.42
2018-11-02T16:03:21.665Z,70.25
2018-11-02T16:05:49.693Z,70.86
2018-11-02T16:08:17.713Z,71.42
2018-11-02T16:10:45.905Z,71.31
2018-11-02T16:13:13.941Z,70.83
2018-11-02T16:15:41.925Z,70.11
2018-11-02T16:18:09.984Z,69.70
2018-11-02T16:20:38.045Z,70.09
2018-11-02T16:23:06.270Z,70.48
2018-11-02T16:25:34.285Z,69.65
2018-11-02T16:28:02.296Z,70.34
2018-11-02T16:30:30.321Z,70.23
2018-11-02T16:32:58.309Z,71.15
2018-11-02T16:35:26.389Z,70.76
2018-11-02T16:37:54.457Z,70.88
2018-11-02T16:40:22.460Z,71.35
2018-11-02T16:42:50.573Z,71.74
2018-11-02T16:45:18.568Z,71.64
2018-11-02T16:47:46.732Z,71.32
2018-11-02T16:50:15.427Z,72.13
2018-11-02T16:52:43.818Z,71.91
2018-11-02T16:55:11.991Z,71.99
2018-11-02T16:57:40.442Z,70.92
2018-11-02T17:00:14.880Z,71.68
2018-11-02T17:02:43.465Z,71.86
2018-11-02T17:05:11.457Z,71.39
2018-11-02T17:07:39.977Z,72.42
2018-11-02T17:10:09.017Z,71.71
2018-11-02T17:12:37.216Z,71.72
2018-11-02T17:15:05.520Z,71.62
2018-11-02T17:17:33.475Z,71.80
2018-11-02T17:20:01.481Z,71.12
2018-11-02T17:22:29.471Z,71.03
2018-11-02T17:24:57.479Z,71.48
2018-11-02T17:27:25.485Z,70.82
2018-11-02T17:29:53.585Z,70.79
2018-11-02T17:32:21.973Z,71.78
2018-11-02T17:34:49.952Z,72.30
2018-11-02T17:37:17.978Z,72.33
2018-11-02T17:39:46.077Z,73.54
2018-11-02T17:42:14.053Z,72.75
2018-11-02T17:44:42.088Z,72.85
2018-11-02T17:47:10.209Z,73.42
2018-11-02T17:49:38.235Z,72.72
2018-11-02T17:52:06.249Z,73.05
2018-11-02T17:54:34.240Z,72.48
2018-11-02T17:57:02.216Z,72.99
2018-11-02T17:59:30.273Z,73.32
2018-11-02T18:01:58.300Z,72.88
2018-11-02T18:04:26.309Z,73.65
2018-11-02T18:06:54.289Z,74.58
2018-11-02T18:09:22.289Z,74.77
2018-11-02T18:11:50.393Z,73.77
2018-11-02T18:14:18.346Z,74.17
2018-11-02T18:16:46.418Z,74.03
2018-11-02T18:19:14.413Z,75.12
2018-11-02T18:21:42.396Z,75.22
2018-11-02T18:24:10.458Z,74.99
2018-11-02T18:26:38.417Z,74.99
2018-11-02T18:29:06.479Z,75.76
2018-11-02T18:31:34.510Z,76.21
2018-11-02T18:34:02.558Z,77.52
2018-11-02T18:36:30.557Z,76.69
2018-11-02T18:38:58.540Z,77.44
2018-11-02T18:41:26.566Z,77.08
2018-11-02T18:43:54.658Z,76.94
2018-11-02T18:46:22.684Z,77.55
2018-11-02T18:48:50.669Z,76.59
2018-11-02T18:51:18.656Z,76.79
2018-11-02T18:53:46.677Z,75.94
2018-11-02T18:56:14.697Z,75.40
2018-11-02T18:58:42.724Z,75.23
2018-11-02T19:01:10.775Z,75.49
2018-11-02T19:03:38.829Z,75.74
2018-11-02T19:06:06.988Z,75.18
2018-11-02T19:08:34.993Z,75.35
2018-11-02T19:11:03.064Z,76.02
2018-11-02T19:13:31.131Z,75.70
2018-11-02T19:15:59.053Z,75.04
2018-11-02T19:18:27.152Z,75.01
2018-11-02T19:20:55.163Z,74.80
2018-11-02T19:23:23.244Z,75.50
2018-11-02T19:25:51.318Z,74.89
2018-11-02T19:28:19.321Z,74.47
2018-11-02T19:30:47.392Z,73.13
2018-11-02T19:33:15.418Z,73.52
2018-11-02T19:35:43.445Z,73.39
2018-11-02T19:38:11.650Z,74.16
2018-11-02T19:40:39.449Z,73.92
2018-11-02T19:43:07.509Z,74.54
2018-11-02T19:45:35.578Z,73.38
2018-11-02T19:48:04.505Z,73.59
2018-11-02T19:50:32.853Z,73.60
2018-11-02T19:53:00.801Z,73.55
2018-11-02T19:55:28.815Z,73.24
2018-11-02T19:57:56.828Z,72.51
2018-11-02T20:00:24.827Z,72.59
2018-11-02T20:02:52.954Z,72.41
2018-11-02T20:05:21.380Z,72.70
2018-11-02T20:07:49.408Z,73.80
2018-11-02T20:10:18.093Z,73.20
2018-11-02T20:12:46.502Z,73.81
2018-11-02T20:15:15.174Z,76.17
2018-11-02T20:17:43.302Z,76.47
2018-11-02T20:20:12.810Z,76.94
2018-11-02T20:22:40.884Z,76.76
2018-11-02T20:25:10.879Z,75.50
2018-11-02T20:27:38.932Z,76.45
2018-11-02T20:30:08.781Z,75.82
2018-11-02T20:32:36.851Z,76.27
2018-11-02T20:35:05.026Z,77.33
2018-11-02T20:37:33.058Z,76.68
2018-11-02T20:40:01.112Z,76.64
2018-11-02T20:42:29.201Z,76.68
2018-11-02T20:44:57.265Z,77.34
2018-11-02T20:47:25.405Z,77.30
2018-11-02T20:49:53.557Z,77.88
2018-11-02T20:52:21.553Z,77.33
2018-11-02T20:54:49.592Z,77.43
2018-11-02T20:57:17.651Z,77.55
2018-11-02T20:59:45.658Z,77.53
2018-11-02T21:02:13.762Z,77.18
2018-11-02T21:04:41.923Z,77.22
2018-11-02T21:07:09.945Z,77.11
2018-11-02T21:09:38.258Z,77.57
2018-11-02T21:12:06.010Z,76.65
2018-11-02T21:14:34.235Z,76.54
2018-11-02T21:17:02.103Z,77.77
2018-11-02T21:19:30.069Z,78.49
2018-11-02T21:21:58.148Z,77.53
2018-11-02T21:24:26.172Z,78.15
2018-11-02T21:26:54.246Z,78.87
2018-11-02T21:29:22.273Z,79.54
2018-11-02T21:31:50.317Z,80.34
2018-11-02T21:34:18.349Z,79.64
2018-11-02T21:36:46.405Z,78.98
2018-11-02T21:39:14.492Z,78.71
2018-11-02T21:41:42.491Z,78.32
2018-11-02T21:44:11.013Z,78.10
2018-11-02T21:46:39.148Z,77.36
2018-11-02T21:49:07.190Z,78.22
2018-11-02T21:51:35.194Z,77.02
2018-11-02T21:54:03.211Z,77.72
2018-11-02T21:56:31.272Z,77.14
2018-11-02T21:59:00.243Z,76.82
2018-11-02T22:01:28.261Z,76.57
2018-11-02T22:03:56.472Z,76.21
2018-11-02T22:06:24.513Z,76.99
2018-11-02T22:08:52.609Z,76.91
2018-11-02T22:11:20.689Z,76.86
2018-11-02T22:13:48.859Z,76.70
2018-11-02T22:16:17.025Z,76.40
2018-11-02T22:18:45.283Z,77.10
2018-11-02T22:21:13.179Z,77.05
2018-11-02T22:23:41.236Z,77.15
2018-11-02T22:26:09.300Z,76.62
2018-11-02T22:28:37.306Z,77.56
2018-11-02T22:31:05.354Z,76.73
2018-11-02T22:33:33.372Z,76.69
2018-11-02T22:36:01.443Z,77.17
2018-11-02T22:38:29.440Z,77.10
2018-11-02T22:40:57.481Z,77.73
2018-11-02T22:43:25.649Z,77.42
2018-11-02T22:45:54.245Z,78.26
2018-11-02T22:48:23.560Z,78.01
2018-11-02T22:50:51.871Z,78.63
2018-11-02T22:53:19.852Z,79.64
2018-11-02T22:55:48.613Z,79.06
2018-11-02T22:58:18.385Z,80.01
2018-11-02T23:00:52.453Z,80.32
2018-11-02T23:03:20.501Z,79.12
2018-11-02T23:05:48.515Z,79.88
2018-11-02T23:08:16.830Z,79.86
2018-11-02T23:10:44.855Z,79.16
2018-11-02T23:13:13.936Z,79.09
2018-11-02T23:15:41.964Z,79.04
2018-11-02T23:18:10.036Z,79.70
2018-11-02T23:20:38.045Z,78.92
2018-11-02T23:23:06.191Z,78.57
2018-11-02T23:25:34.189Z,80.12
2018-11-02T23:28:02.164Z,79.27
2018-11-02T23:30:30.250Z,78.49
2018-11-02T23:32:58.244Z,77.82
2018-11-02T23:35:26.356Z,77.65
2018-11-02T23:37:54.440Z,76.27
2018-11-02T23:40:22.465Z,78.30
2018-11-02T23:42:50.510Z,79.54
2018-11-02T23:45:18.573Z,80.14
2018-11-02T23:47:52.004Z,81.40
2018-11-02T23:50:20.013Z,81.14
2018-11-02T23:52:48.051Z,80.19
2018-11-02T23:55:16.251Z,81.33
2018-11-02T23:57:44.326Z,81.00
